createdAt,value
2018-08-06T00:01:39.076Z,1.00
2018-08-06T00:04:07.841Z,1.30
2018-08-06T00:06:36.250Z,1.40
2018-08-06T00:09:07.171Z,1.20
2018-08-06T00:11:35.905Z,1.30
2018-08-06T00:14:11.112Z,1.40
2018-08-06T00:16:39.935Z,1.20
2018-08-06T00:19:08.726Z,1.40
2018-08-06T00:21:37.145Z,1.20
2018-08-06T00:24:05.970Z,1.60
2018-08-06T00:26:34.797Z,1.27
2018-08-06T00:29:03.170Z,1.50
2018-08-06T00:31:32.003Z,1.30
2018-08-06T00:34:00.389Z,1.30
2018-08-06T00:36:28.730Z,1.30
2018-08-06T00:38:57.119Z,1.17
2018-08-06T00:41:25.499Z,1.23
2018-08-06T00:43:54.305Z,1.40
2018-08-06T00:46:23.029Z,1.30
2018-08-06T00:48:51.470Z,1.37
2018-08-06T00:51:20.220Z,1.40
2018-08-06T00:53:48.991Z,1.47
2018-08-06T00:56:17.375Z,1.23
2018-08-06T00:58:45.746Z,1.40
2018-08-06T01:01:14.102Z,1.30
2018-08-06T01:03:42.498Z,1.50
2018-08-06T01:06:10.859Z,1.60
2018-08-06T01:08:39.672Z,1.40
2018-08-06T01:11:08.086Z,1.50
2018-08-06T01:13:36.936Z,1.30
2018-08-06T01:16:05.422Z,1.43
2018-08-06T01:18:33.883Z,1.23
2018-08-06T01:21:02.286Z,1.50
2018-08-06T01:23:30.665Z,1.20
2018-08-06T01:25:59.494Z,1.40
2018-08-06T01:28:27.927Z,1.30
2018-08-06T01:30:56.459Z,1.40
2018-08-06T01:33:25.234Z,1.40
2018-08-06T01:35:53.629Z,1.43
2018-08-06T01:38:22.066Z,1.40
2018-08-06T01:40:50.447Z,1.60
2018-08-06T01:43:19.299Z,1.40
2018-08-06T01:45:47.716Z,1.30
2018-08-06T01:48:16.548Z,1.20
2018-08-06T01:50:45.345Z,2.13
2018-08-06T01:53:14.177Z,1.27
2018-08-06T01:55:42.931Z,1.30
2018-08-06T01:58:11.754Z,1.33
2018-08-06T02:00:40.556Z,1.20
2018-08-06T02:03:08.954Z,1.30
2018-08-06T02:05:37.369Z,1.63
2018-08-06T02:08:06.182Z,1.50
2018-08-06T02:10:34.586Z,1.53
2018-08-06T02:13:03.446Z,1.80
2018-08-06T02:15:31.863Z,1.80
2018-08-06T02:18:00.289Z,1.60
2018-08-06T02:20:28.726Z,1.17
2018-08-06T02:22:57.558Z,1.60
2018-08-06T02:25:25.958Z,1.30
2018-08-06T02:27:54.841Z,1.70
2018-08-06T02:30:23.696Z,1.30
2018-08-06T02:32:52.234Z,1.60
2018-08-06T02:35:20.719Z,1.50
2018-08-06T02:37:49.259Z,1.50
2018-08-06T02:40:19.941Z,1.50
2018-08-06T02:42:48.450Z,1.53
2018-08-06T02:45:17.454Z,1.10
2018-08-06T02:47:46.557Z,1.30
2018-08-06T02:50:14.999Z,1.63
2018-08-06T02:52:44.592Z,1.40
2018-08-06T02:55:15.045Z,1.97
2018-08-06T02:57:43.502Z,1.60
2018-08-06T03:00:13.386Z,1.50
2018-08-06T03:02:42.635Z,1.73
2018-08-06T03:05:12.689Z,1.80
2018-08-06T03:07:42.332Z,1.80
2018-08-06T03:10:10.888Z,1.50
2018-08-06T03:12:39.271Z,1.70
2018-08-06T03:15:09.454Z,2.10
2018-08-06T03:17:38.738Z,1.70
2018-08-06T03:20:07.621Z,1.80
2018-08-06T03:22:36.538Z,1.60
2018-08-06T03:25:07.191Z,1.40
2018-08-06T03:27:35.574Z,1.53
2018-08-06T03:30:05.032Z,1.50
2018-08-06T03:32:33.415Z,1.80
2018-08-06T03:35:02.268Z,1.60
2018-08-06T03:37:31.056Z,1.57
2018-08-06T03:39:59.497Z,2.00
2018-08-06T03:42:28.292Z,1.90
2018-08-06T03:44:57.076Z,1.93
2018-08-06T03:47:25.499Z,2.10
2018-08-06T03:49:53.879Z,2.17
2018-08-06T03:52:22.321Z,1.90
2018-08-06T03:54:50.676Z,2.13
2018-08-06T03:57:19.110Z,2.00
2018-08-06T03:59:47.538Z,1.73
2018-08-06T04:02:16.377Z,2.20
2018-08-06T04:04:45.160Z,1.93
2018-08-06T04:07:13.511Z,2.30
2018-08-06T04:09:43.203Z,2.20
2018-08-06T04:12:11.934Z,2.30
2018-08-06T04:14:40.357Z,2.10
2018-08-06T04:17:09.155Z,2.33
2018-08-06T04:19:37.964Z,2.40
2018-08-06T04:22:06.419Z,2.10
2018-08-06T04:24:34.811Z,2.20
2018-08-06T04:27:03.250Z,2.30
2018-08-06T04:29:31.625Z,2.40
2018-08-06T04:32:00.050Z,2.57
2018-08-06T04:34:28.461Z,2.20
2018-08-06T04:36:57.264Z,2.10
2018-08-06T04:39:25.657Z,1.90
2018-08-06T04:41:54.054Z,2.10
2018-08-06T04:44:22.848Z,2.17
2018-08-06T04:46:51.249Z,2.47
2018-08-06T04:49:20.112Z,2.30
2018-08-06T04:51:48.972Z,2.17
2018-08-06T04:54:17.741Z,2.10
2018-08-06T04:56:46.153Z,2.37
2018-08-06T04:59:14.521Z,2.23
2018-08-06T05:01:42.965Z,2.30
2018-08-06T05:04:11.809Z,2.80
2018-08-06T05:06:40.204Z,2.17
2018-08-06T05:09:11.467Z,2.40
2018-08-06T05:11:39.987Z,2.73
2018-08-06T05:17:04.629Z,2.10
2018-08-06T05:19:33.553Z,2.70
2018-08-06T05:22:01.903Z,2.10
2018-08-06T05:24:30.293Z,2.53
2018-08-06T05:26:59.096Z,2.20
2018-08-06T05:29:27.508Z,2.53
2018-08-06T05:31:56.370Z,3.03
2018-08-06T05:34:24.778Z,3.00
2018-08-06T05:36:53.180Z,2.80
2018-08-06T05:39:21.626Z,2.60
2018-08-06T05:41:50.443Z,2.63
2018-08-06T05:44:18.869Z,2.40
2018-08-06T05:46:47.745Z,2.70
2018-08-06T05:49:16.652Z,2.67
2018-08-06T05:51:45.536Z,2.43
2018-08-06T05:54:14.279Z,2.53
2018-08-06T05:56:43.140Z,2.43
2018-08-06T05:59:11.976Z,2.00
2018-08-06T06:01:40.934Z,2.40
2018-08-06T06:04:21.411Z,2.17
2018-08-06T06:06:50.309Z,1.77
2018-08-06T06:09:19.126Z,2.67
2018-08-06T06:11:47.491Z,2.90
2018-08-06T06:14:15.950Z,3.10
2018-08-06T06:16:44.775Z,2.60
2018-08-06T06:19:13.698Z,2.27
2018-08-06T06:21:42.115Z,1.80
2018-08-06T06:24:10.910Z,2.20
2018-08-06T06:26:39.750Z,1.87
2018-08-06T06:29:08.176Z,1.83
2018-08-06T06:31:36.557Z,1.80
2018-08-06T06:34:04.981Z,1.77
2018-08-06T06:36:33.412Z,1.80
2018-08-06T06:39:01.822Z,1.67
2018-08-06T06:41:30.217Z,2.03
2018-08-06T06:43:58.637Z,1.43
2018-08-06T06:46:27.065Z,1.70
2018-08-06T06:48:55.948Z,1.23
2018-08-06T06:51:24.438Z,1.40
2018-08-06T06:53:53.324Z,1.00
2018-08-06T06:56:21.714Z,1.27
2018-08-06T06:58:50.195Z,1.30
2018-08-06T07:01:19.007Z,1.10
2018-08-06T07:03:47.398Z,0.80
2018-08-06T07:06:15.852Z,1.20
2018-08-06T07:08:44.725Z,1.00
2018-08-06T07:11:13.559Z,0.80
2018-08-06T07:13:42.501Z,0.80
2018-08-06T07:18:38.484Z,1.20
2018-08-06T07:23:34.773Z,1.50
2018-08-06T07:26:03.271Z,1.40
2018-08-06T07:28:32.006Z,1.10
2018-08-06T07:45:47.444Z,1.00
2018-08-06T07:48:16.262Z,1.13
2018-08-06T07:50:44.676Z,0.90
2018-08-06T07:53:13.523Z,1.20
2018-08-06T07:55:42.366Z,1.10
2018-08-06T07:58:11.241Z,1.00
2018-08-06T08:00:39.640Z,1.10
2018-08-06T08:03:08.012Z,1.30
2018-08-06T08:05:36.459Z,0.90
2018-08-06T08:08:04.895Z,1.03
2018-08-06T08:10:34.155Z,1.00
2018-08-06T08:13:03.044Z,1.10
2018-08-06T08:15:31.941Z,1.10
2018-08-06T08:18:00.838Z,1.40
2018-08-06T08:20:29.257Z,0.93
2018-08-06T08:22:58.088Z,0.90
2018-08-06T08:25:27.013Z,1.10
2018-08-06T08:27:55.408Z,1.20
2018-08-06T08:30:24.314Z,1.20
2018-08-06T08:32:52.739Z,1.33
2018-08-06T08:35:25.467Z,1.23
2018-08-06T08:37:54.223Z,1.10
2018-08-06T08:40:23.009Z,1.20
2018-08-06T08:42:51.791Z,1.40
2018-08-06T08:45:20.585Z,1.20
2018-08-06T08:47:48.974Z,1.10
2018-08-06T08:50:19.553Z,1.20
2018-08-06T08:52:48.511Z,1.20
2018-08-06T08:55:18.738Z,1.00
2018-08-06T08:57:47.686Z,1.40
2018-08-06T09:00:18.946Z,1.30
2018-08-06T09:02:48.995Z,0.93
2018-08-06T09:05:17.875Z,1.10
2018-08-06T09:07:47.017Z,1.10
2018-08-06T09:10:16.687Z,0.73
2018-08-06T09:12:45.750Z,1.20
2018-08-06T09:15:22.574Z,1.00
2018-08-06T09:17:51.419Z,1.50
2018-08-06T09:20:19.807Z,1.07
2018-08-06T09:22:48.742Z,1.00
2018-08-06T09:25:17.678Z,0.80
2018-08-06T09:27:47.915Z,1.00
2018-08-06T09:30:19.084Z,1.30
2018-08-06T09:32:49.119Z,0.97
2018-08-06T09:35:18.732Z,1.00
2018-08-06T09:37:47.094Z,0.83
2018-08-06T09:40:17.129Z,1.10
2018-08-06T09:42:46.302Z,1.03
2018-08-06T09:45:16.351Z,1.30
2018-08-06T09:47:45.971Z,1.00
2018-08-06T09:50:15.618Z,1.10
2018-08-06T09:52:45.512Z,1.10
2018-08-06T09:55:19.489Z,0.97
2018-08-06T09:57:49.263Z,1.20
2018-08-06T10:01:24.168Z,1.10
2018-08-06T10:03:52.521Z,1.00
2018-08-06T10:06:21.544Z,1.20
2018-08-06T10:08:49.777Z,1.17
2018-08-06T10:11:18.623Z,1.20
2018-08-06T10:13:47.514Z,1.10
2018-08-06T10:16:16.421Z,1.20
2018-08-06T10:18:44.887Z,1.30
2018-08-06T10:21:13.650Z,1.10
2018-08-06T10:23:42.417Z,1.17
2018-08-06T10:26:11.266Z,1.00
2018-08-06T10:28:40.059Z,1.20
2018-08-06T10:31:08.522Z,1.20
2018-08-06T10:33:37.372Z,1.23
2018-08-06T10:36:05.810Z,1.00
2018-08-06T10:38:34.686Z,1.00
2018-08-06T10:41:03.085Z,1.10
2018-08-06T10:43:31.481Z,1.20
2018-08-06T10:45:59.978Z,0.90
2018-08-06T10:48:28.807Z,1.10
2018-08-06T10:50:57.624Z,1.10
2018-08-06T10:53:26.473Z,1.20
2018-08-06T10:55:55.365Z,1.30
2018-08-06T10:58:24.193Z,1.47
2018-08-06T11:00:53.027Z,1.07
2018-08-06T11:03:21.808Z,1.10
2018-08-06T11:05:50.688Z,1.00
2018-08-06T11:08:19.471Z,1.00
2018-08-06T11:10:48.328Z,1.10
2018-08-06T11:13:17.440Z,1.20
2018-08-06T11:15:46.322Z,0.90
2018-08-06T11:18:15.164Z,1.10
2018-08-06T11:20:43.970Z,1.30
2018-08-06T11:23:12.907Z,1.00
2018-08-06T11:25:41.829Z,1.17
2018-08-06T11:28:11.360Z,1.10
2018-08-06T11:30:40.256Z,1.03
2018-08-06T11:33:09.091Z,1.10
2018-08-06T11:35:37.982Z,1.30
2018-08-06T11:38:07.169Z,1.03
2018-08-06T11:40:35.583Z,1.13
2018-08-06T11:43:04.566Z,1.10
2018-08-06T11:45:33.057Z,1.30
2018-08-06T11:48:01.914Z,1.50
2018-08-06T11:50:30.720Z,1.00
2018-08-06T11:52:59.562Z,1.20
2018-08-06T11:55:28.423Z,1.10
2018-08-06T11:57:57.255Z,1.20
2018-08-06T12:00:27.480Z,1.30
2018-08-06T12:02:55.915Z,1.30
2018-08-06T12:05:24.759Z,1.10
2018-08-06T12:07:53.535Z,1.17
2018-08-06T12:10:22.413Z,1.10
2018-08-06T12:12:51.411Z,1.43
2018-08-06T12:15:20.250Z,0.90
2018-08-06T12:17:49.069Z,1.10
2018-08-06T12:20:19.344Z,1.17
2018-08-06T12:22:49.325Z,1.20
2018-08-06T12:25:18.368Z,0.93
2018-08-06T12:27:47.845Z,1.20
2018-08-06T12:30:21.923Z,1.27
2018-08-06T12:32:51.649Z,1.20
2018-08-06T12:35:20.501Z,0.97
2018-08-06T12:37:49.662Z,1.33
2018-08-06T12:40:22.340Z,0.90
2018-08-06T12:42:50.865Z,0.93
2018-08-06T12:45:19.721Z,1.23
2018-08-06T12:47:48.718Z,1.00
2018-08-06T12:50:17.669Z,1.05
2018-08-06T12:52:46.606Z,1.12
2018-08-06T12:55:16.668Z,0.87
2018-08-06T12:57:45.915Z,1.02
2018-08-06T13:00:17.310Z,1.02
2018-08-06T13:02:46.710Z,1.02
2018-08-06T13:05:15.631Z,1.00
2018-08-06T13:07:44.567Z,0.85
2018-08-06T13:10:13.658Z,1.05
2018-08-06T13:12:42.667Z,1.22
2018-08-06T13:15:12.863Z,1.10
2018-08-06T13:17:41.713Z,0.80
2018-08-06T13:20:10.631Z,1.00
2018-08-06T13:22:39.019Z,1.07
2018-08-06T13:25:08.264Z,0.90
2018-08-06T13:27:37.284Z,1.02
2018-08-06T13:30:09.644Z,1.02
2018-08-06T13:32:38.087Z,0.90
2018-08-06T13:35:06.523Z,1.05
2018-08-06T13:37:35.492Z,1.42
2018-08-06T13:40:04.880Z,1.30
2018-08-06T13:42:33.706Z,1.30
2018-08-06T13:45:02.118Z,1.17
2018-08-06T13:47:31.004Z,1.32
2018-08-06T13:49:59.767Z,1.30
2018-08-06T13:52:28.605Z,0.90
2018-08-06T13:54:57.464Z,0.90
2018-08-06T13:57:25.981Z,1.00
2018-08-06T13:59:54.415Z,1.00
2018-08-06T14:02:22.866Z,1.22
2018-08-06T14:04:51.671Z,1.20
2018-08-06T14:07:20.750Z,1.12
2018-08-06T14:09:49.165Z,1.12
2018-08-06T14:12:17.980Z,1.20
2018-08-06T14:14:46.781Z,1.00
2018-08-06T14:17:15.556Z,1.02
2018-08-06T14:19:44.035Z,1.00
2018-08-06T14:22:12.845Z,0.95
2018-08-06T14:24:41.659Z,1.00
2018-08-06T14:27:10.631Z,0.90
2018-08-06T14:29:39.387Z,1.00
2018-08-06T14:32:07.802Z,0.95
2018-08-06T14:34:36.596Z,0.93
2018-08-06T14:37:05.615Z,0.80
2018-08-06T14:39:34.366Z,1.00
2018-08-06T14:42:03.317Z,1.00
2018-08-06T14:44:31.673Z,0.68
2018-08-06T14:47:00.119Z,0.82
2018-08-06T14:49:28.558Z,0.93
2018-08-06T14:51:57.516Z,0.90
2018-08-06T14:54:26.359Z,0.95
2018-08-06T14:56:55.288Z,1.10
2018-08-06T14:59:24.106Z,0.90
2018-08-06T15:01:52.930Z,1.00
2018-08-06T15:04:21.833Z,1.10
2018-08-06T15:06:50.276Z,0.88
2018-08-06T15:09:19.169Z,0.90
2018-08-06T15:11:48.115Z,0.93
2018-08-06T15:14:16.891Z,0.90
2018-08-06T15:16:45.763Z,1.12
2018-08-06T15:19:14.611Z,0.80
2018-08-06T15:24:11.436Z,0.90
2018-08-06T15:26:39.831Z,0.98
2018-08-06T15:29:08.663Z,0.90
2018-08-06T15:31:37.191Z,0.80
2018-08-06T15:34:06.988Z,0.95
2018-08-06T15:46:27.161Z,1.10
2018-08-06T15:48:55.951Z,0.70
2018-08-06T15:51:24.741Z,0.80
2018-08-06T15:53:53.617Z,0.80
2018-08-06T15:56:22.421Z,0.72
2018-08-06T15:58:51.690Z,0.90
2018-08-06T16:01:20.507Z,1.05
2018-08-06T16:13:40.420Z,1.12
2018-08-06T16:16:09.214Z,0.82
2018-08-06T16:28:29.204Z,0.70
2018-08-06T16:30:57.692Z,0.70
2018-08-06T16:33:26.481Z,0.82
2018-08-06T16:35:55.364Z,0.93
2018-08-06T16:38:24.216Z,0.78
2018-08-06T16:40:53.039Z,0.90
2018-08-06T16:43:21.899Z,0.75
2018-08-06T16:45:50.296Z,0.80
2018-08-06T16:48:19.152Z,0.90
2018-08-06T16:50:47.944Z,1.10
2018-08-06T16:53:16.823Z,0.90
2018-08-06T16:55:45.656Z,0.90
2018-08-06T16:58:14.098Z,0.85
2018-08-06T17:00:42.486Z,1.02
2018-08-06T17:03:11.119Z,0.72
2018-08-06T17:05:39.517Z,0.80
2018-08-06T17:08:07.907Z,0.80
2018-08-06T17:10:36.755Z,0.70
2018-08-06T17:13:05.213Z,0.93
2018-08-06T17:15:33.996Z,0.82
2018-08-06T17:18:02.845Z,1.00
2018-08-06T17:20:31.729Z,0.82
2018-08-06T17:23:00.232Z,0.80
2018-08-06T17:25:29.122Z,0.75
2018-08-06T17:27:57.952Z,0.80
2018-08-06T17:30:27.232Z,0.78
2018-08-06T17:32:56.068Z,0.88
2018-08-06T17:35:24.909Z,1.10
2018-08-06T17:37:53.772Z,0.70
2018-08-06T17:40:22.253Z,0.90
2018-08-06T17:42:51.210Z,0.88
2018-08-06T17:45:21.876Z,0.65
2018-08-06T17:47:50.805Z,0.80
2018-08-06T17:50:20.908Z,0.90
2018-08-06T17:52:50.847Z,0.80
2018-08-06T17:55:20.265Z,1.10
2018-08-06T17:57:48.828Z,0.90
2018-08-06T18:00:17.927Z,0.98
2018-08-06T18:02:46.894Z,1.10
2018-08-06T18:05:16.649Z,0.90
2018-08-06T18:07:45.869Z,3.83
2018-08-06T18:10:15.886Z,5.17
2018-08-06T18:12:45.388Z,4.72
2018-08-06T18:15:14.268Z,3.72
2018-08-06T18:17:43.162Z,2.15
2018-08-06T18:20:14.942Z,1.60
2018-08-06T18:22:43.408Z,1.65
2018-08-06T18:25:15.140Z,1.45
2018-08-06T18:27:44.929Z,1.98
2018-08-06T18:30:14.787Z,1.40
2018-08-06T18:32:43.760Z,1.20
2018-08-06T18:35:14.324Z,1.50
2018-08-06T18:37:43.231Z,1.40
2018-08-06T18:40:12.861Z,1.17
2018-08-06T18:42:41.811Z,1.20
2018-08-06T18:45:13.042Z,1.20
2018-08-06T18:47:43.678Z,1.10
2018-08-06T18:50:13.468Z,1.20
2018-08-06T18:52:43.215Z,1.20
2018-08-06T18:55:14.090Z,1.30
2018-08-06T18:57:42.957Z,1.17
2018-08-06T19:00:14.035Z,1.23
2018-08-06T19:02:42.916Z,1.50
2018-08-06T19:05:11.526Z,1.20
2018-08-06T19:07:40.455Z,1.10
2018-08-06T19:10:10.381Z,1.00
2018-08-06T19:12:44.402Z,1.30
2018-08-06T19:15:13.748Z,1.50
2018-08-06T19:17:47.872Z,1.20
2018-08-06T19:20:16.725Z,1.20
2018-08-06T19:22:45.774Z,1.40
2018-08-06T19:25:19.595Z,1.57
2018-08-06T19:27:47.990Z,1.40
2018-08-06T19:30:16.425Z,1.47
2018-08-06T19:32:44.867Z,1.67
2018-08-06T19:35:13.847Z,1.40
2018-08-06T19:37:44.426Z,1.43
2018-08-06T19:40:12.947Z,1.40
2018-08-06T19:42:47.692Z,1.30
2018-08-06T19:45:16.167Z,1.40
2018-08-06T19:47:45.055Z,1.50
2018-08-06T19:50:18.816Z,1.37
2018-08-06T19:52:47.628Z,1.50
2018-08-06T19:55:21.306Z,1.40
2018-08-06T19:57:49.761Z,1.70
2018-08-06T20:00:18.574Z,1.20
2018-08-06T20:02:47.070Z,1.10
2018-08-06T20:05:16.320Z,1.30
2018-08-06T20:07:44.765Z,1.50
2018-08-06T20:10:14.580Z,1.20
2018-08-06T20:12:44.015Z,1.63
2018-08-06T20:15:14.507Z,1.60
2018-08-06T20:17:43.025Z,1.23
2018-08-06T20:20:11.865Z,1.33
2018-08-06T20:22:40.256Z,1.40
2018-08-06T20:25:20.280Z,1.47
2018-08-06T20:27:51.038Z,1.37
2018-08-06T20:30:21.571Z,1.37
2018-08-06T20:32:49.955Z,1.00
2018-08-06T20:35:18.999Z,1.30
2018-08-06T20:37:47.414Z,1.20
2018-08-06T20:40:15.884Z,0.93
2018-08-06T20:42:45.706Z,1.30
2018-08-06T20:45:16.137Z,1.20
2018-08-06T20:47:45.354Z,1.30
2018-08-06T20:50:16.490Z,1.27
2018-08-06T20:52:46.356Z,1.53
2018-08-06T20:55:15.228Z,1.17
2018-08-06T20:57:44.205Z,1.40
2018-08-06T21:00:18.318Z,1.40
2018-08-06T21:02:48.008Z,1.20
2018-08-06T21:05:16.429Z,1.40
2018-08-06T21:07:45.265Z,1.67
2018-08-06T21:10:15.307Z,1.50
2018-08-06T21:12:44.339Z,1.30
2018-08-06T21:15:13.753Z,1.10
2018-08-06T21:17:42.835Z,1.50
2018-08-06T21:20:13.181Z,1.30
2018-08-06T21:22:43.229Z,1.30
2018-08-06T21:25:12.244Z,1.30
2018-08-06T21:27:41.875Z,1.47
2018-08-06T21:30:15.644Z,1.50
2018-08-06T21:32:51.794Z,1.40
2018-08-06T21:35:21.060Z,1.47
2018-08-06T21:37:50.591Z,1.20
2018-08-06T21:40:19.773Z,1.30
2018-08-06T21:42:48.706Z,1.30
2018-08-06T21:45:17.097Z,1.30
2018-08-06T21:47:45.584Z,1.60
2018-08-06T21:50:14.566Z,1.30
2018-08-06T21:52:43.453Z,1.13
2018-08-06T21:55:12.716Z,1.87
2018-08-06T21:57:41.184Z,1.47
2018-08-06T22:00:12.247Z,1.47
2018-08-06T22:02:41.072Z,1.40
2018-08-06T22:05:09.507Z,1.53
2018-08-06T22:07:37.920Z,1.07
2018-08-06T22:10:06.752Z,1.50
2018-08-06T22:12:35.543Z,1.43
2018-08-06T22:15:04.917Z,1.30
2018-08-06T22:17:33.340Z,1.40
2018-08-06T22:20:01.769Z,1.37
2018-08-06T22:22:30.621Z,1.40
2018-08-06T22:24:59.408Z,1.20
2018-08-06T22:27:28.256Z,1.40
2018-08-06T22:29:56.639Z,1.37
2018-08-06T22:32:25.064Z,1.40
2018-08-06T22:34:53.864Z,1.23
2018-08-06T22:37:22.695Z,1.10
2018-08-06T22:39:51.127Z,1.10
2018-08-06T22:42:19.503Z,1.30
2018-08-06T22:44:47.883Z,1.30
2018-08-06T22:47:16.335Z,1.33
2018-08-06T22:49:45.140Z,1.07
2018-08-06T22:52:14.023Z,1.10
2018-08-06T22:54:42.480Z,1.37
2018-08-06T22:57:10.865Z,1.10
2018-08-06T22:59:39.953Z,1.73
2018-08-06T23:02:08.385Z,1.10
2018-08-06T23:04:36.845Z,1.17
2018-08-06T23:07:05.555Z,0.93
2018-08-06T23:09:34.615Z,1.30
2018-08-06T23:12:03.054Z,1.10
2018-08-06T23:14:31.458Z,1.30
2018-08-06T23:17:00.835Z,1.30
2018-08-06T23:19:29.220Z,1.20
2018-08-06T23:21:58.042Z,1.10
2018-08-06T23:24:26.451Z,1.60
2018-08-06T23:26:55.274Z,1.50
2018-08-06T23:29:23.668Z,1.47
2018-08-06T23:31:52.483Z,1.40
2018-08-06T23:34:20.893Z,1.20
2018-08-06T23:36:49.334Z,1.40
2018-08-06T23:39:17.736Z,1.23
2018-08-06T23:41:46.127Z,1.30
2018-08-06T23:44:14.503Z,1.20
2018-08-06T23:46:43.334Z,1.30
2018-08-06T23:49:11.764Z,1.23
2018-08-06T23:51:40.610Z,1.20
2018-08-06T23:54:21.663Z,1.20
2018-08-06T23:56:50.480Z,1.40
2018-08-06T23:59:18.998Z,1.50
